Time;durP1;ratioP1;P1;durP2;ratioP2;P2;SDS_P1;SDS_P2;PMS_P1;PMS_P2;Temp;Humidity;BMP_temperature;BMP_pressure;BME280_temperature;BME280_humidity;BME280_pressure;Samples;Min_cycle;Max_cycle;Signal;HPM_P1;HPM_P2
2021/06/19 00:00:00;;;;;;;10.13;9.23;;;27.10;55.20;;;;;;5073152;28;20788;-50
2021/06/19 00:02:28;;;;;;;10.33;8.60;;;27.30;55.00;;;;;;5055306;28;20452;-50
2021/06/19 00:04:54;;;;;;;10.73;9.10;;;27.00;55.00;;;;;;5073439;28;20930;-50
2021/06/19 00:07:21;;;;;;;12.37;9.67;;;27.00;55.30;;;;;;5073038;28;20448;-48
2021/06/19 00:09:48;;;;;;;10.83;9.47;;;26.90;55.50;;;;;;5069469;22;20505;-53
2021/06/19 00:12:15;;;;;;;11.00;10.00;;;27.00;55.80;;;;;;5052216;28;20478;-53
2021/06/19 00:14:42;;;;;;;10.90;9.80;;;26.80;55.80;;;;;;5052037;28;20460;-54
2021/06/19 00:17:08;;;;;;;10.27;9.33;;;26.80;56.00;;;;;;5051649;28;20438;-53
2021/06/19 00:19:36;;;;;;;11.77;10.57;;;26.70;56.00;;;;;;5050827;28;20450;-54
2021/06/19 00:22:03;;;;;;;12.33;10.10;;;26.70;56.10;;;;;;5052391;28;20919;-53
2021/06/19 00:24:35;;;;;;;10.70;9.60;;;26.70;56.30;;;;;;5051623;28;20437;-53
2021/06/19 00:27:02;;;;;;;10.30;9.50;;;26.60;56.40;;;;;;5051924;28;20430;-53
2021/06/19 00:29:31;;;;;;;9.73;9.03;;;26.60;56.30;;;;;;5051426;28;21016;-53
2021/06/19 00:31:57;;;;;;;8.60;7.70;;;26.90;56.50;;;;;;5051813;28;20474;-54
2021/06/19 00:34:24;;;;;;;11.30;10.30;;;26.60;56.30;;;;;;5051285;28;20439;-53
2021/06/19 00:36:52;;;;;;;9.70;8.80;;;26.60;56.50;;;;;;5051839;28;20437;-53
2021/06/19 00:39:19;;;;;;;10.63;9.43;;;26.50;56.50;;;;;;5051528;28;20466;-54
2021/06/19 00:41:46;;;;;;;10.77;9.67;;;26.50;56.50;;;;;;5051655;28;20442;-54
2021/06/19 00:44:16;;;;;;;11.03;10.03;;;26.50;56.60;;;;;;5051839;28;20446;-54
2021/06/19 00:46:43;;;;;;;11.00;10.10;;;26.50;56.70;;;;;;5051620;28;20815;-54
2021/06/19 00:49:10;;;;;;;10.67;9.67;;;26.50;56.80;;;;;;5033180;28;20488;-54
2021/06/19 00:51:37;;;;;;;8.83;8.13;;;26.50;57.00;;;;;;5051463;28;20479;-54
2021/06/19 00:54:05;;;;;;;10.53;8.83;;;26.50;57.00;;;;;;5051523;28;20426;-53
2021/06/19 00:56:36;;;;;;;9.60;8.70;;;26.50;57.10;;;;;;5051904;28;20620;-54
2021/06/19 00:59:03;;;;;;;9.97;9.10;;;26.40;57.10;;;;;;5051031;28;20568;-53
2021/06/19 01:01:30;;;;;;;10.23;9.43;;;26.40;57.20;;;;;;5050952;28;20442;-54
2021/06/19 01:03:57;;;;;;;9.47;8.77;;;26.40;57.30;;;;;;5051329;28;20427;-54
2021/06/19 01:06:23;;;;;;;11.57;10.57;;;26.40;57.40;;;;;;5051179;28;20438;-54
2021/06/19 01:08:50;;;;;;;10.43;9.10;;;26.40;57.50;;;;;;5050945;28;20542;-53
2021/06/19 01:11:21;;;;;;;10.30;9.40;;;26.30;57.60;;;;;;5051326;28;20446;-53
2021/06/19 01:13:48;;;;;;;11.20;10.00;;;26.30;57.70;;;;;;5051127;28;20475;-54
2021/06/19 01:16:15;;;;;;;14.60;10.07;;;26.30;57.80;;;;;;5051259;28;20464;-54
2021/06/19 01:18:42;;;;;;;11.63;8.87;;;26.30;58.00;;;;;;5050625;28;20466;-54
2021/06/19 01:21:13;;;;;;;11.70;10.70;;;26.30;58.00;;;;;;5050705;28;20522;-54
2021/06/19 01:23:40;;;;;;;10.80;9.53;;;26.30;58.20;;;;;;5051138;28;20458;-54
2021/06/19 01:26:08;;;;;;;9.60;8.90;;;26.20;58.20;;;;;;5050902;28;20437;-54
2021/06/19 01:28:34;;;;;;;9.53;8.63;;;26.20;58.30;;;;;;5050190;28;20485;-54
2021/06/19 01:31:01;;;;;;;9.67;8.80;;;26.10;58.40;;;;;;5050347;28;20461;-54
2021/06/19 01:33:27;;;;;;;10.20;9.23;;;26.10;58.50;;;;;;5050823;28;20490;-54
2021/06/19 01:35:54;;;;;;;11.13;9.30;;;26.10;58.60;;;;;;5050774;28;20434;-54
2021/06/19 01:38:21;;;;;;;11.13;10.03;;;26.10;58.70;;;;;;5050383;28;20561;-54
2021/06/19 01:40:51;;;;;;;10.13;9.20;;;26.10;58.90;;;;;;5032860;28;20943;-54
2021/06/19 01:43:19;;;;;;;10.73;9.63;;;26.10;59.00;;;;;;5050800;28;20427;-54
2021/06/19 01:45:46;;;;;;;10.03;9.20;;;26.10;59.10;;;;;;5049728;28;20481;-54
2021/06/19 01:48:12;;;;;;;11.63;9.00;;;26.00;59.10;;;;;;5050430;28;20746;-54
2021/06/19 01:50:39;;;;;;;10.53;9.53;;;26.00;59.20;;;;;;5050431;28;20436;-54
2021/06/19 01:53:06;;;;;;;12.90;9.90;;;25.90;59.30;;;;;;5050495;28;20480;-54
2021/06/19 01:55:33;;;;;;;13.23;9.77;;;26.00;59.40;;;;;;5050499;28;20526;-54
2021/06/19 01:58:01;;;;;;;10.37;9.17;;;25.90;59.50;;;;;;5050270;28;20478;-54
2021/06/19 02:00:31;;;;;;;9.93;8.97;;;25.90;59.60;;;;;;5032247;28;20906;-54
2021/06/19 02:02:59;;;;;;;16.83;9.37;;;25.70;59.60;;;;;;5032337;28;20473;-54
2021/06/19 02:05:27;;;;;;;10.93;9.90;;;25.90;59.70;;;;;;5050535;28;20439;-53
2021/06/19 02:07:57;;;;;;;9.53;8.80;;;25.60;59.80;;;;;;5050278;28;20529;-54
2021/06/19 02:10:25;;;;;;;9.47;8.67;;;25.70;59.90;;;;;;5050197;28;20526;-54
2021/06/19 02:12:52;;;;;;;11.80;9.47;;;25.80;60.00;;;;;;5050362;28;20573;-54
2021/06/19 02:15:19;;;;;;;9.90;8.90;;;25.70;60.00;;;;;;5050567;28;20978;-54
2021/06/19 02:17:47;;;;;;;9.23;8.43;;;25.70;60.20;;;;;;5049697;28;20450;-54
2021/06/19 02:20:16;;;;;;;9.07;8.27;;;25.60;60.10;;;;;;5048938;28;20444;-54
2021/06/19 02:22:43;;;;;;;11.80;9.47;;;25.70;60.40;;;;;;5050045;28;20505;-54
2021/06/19 02:25:12;;;;;;;9.77;8.70;;;25.50;60.30;;;;;;5050263;28;20430;-54
2021/06/19 02:27:49;;;;;;;11.33;10.10;;;25.70;60.70;;;;;;5050365;28;20439;-54
2021/06/19 02:30:19;;;;;;;10.80;9.70;;;25.70;61.00;;;;;;5049865;28;20426;-54
2021/06/19 02:32:46;;;;;;;11.03;9.93;;;25.70;61.00;;;;;;5050142;28;20823;-55
2021/06/19 02:35:14;;;;;;;10.10;9.30;;;25.40;60.90;;;;;;5050273;28;20438;-54
2021/06/19 02:37:40;;;;;;;11.27;9.53;;;25.60;61.20;;;;;;5032188;28;20451;-54
2021/06/19 02:40:08;;;;;;;14.13;9.57;;;25.40;61.30;;;;;;5049771;28;20429;-54
2021/06/19 02:42:35;;;;;;;10.60;9.67;;;25.60;61.60;;;;;;5050172;28;20446;-55
2021/06/19 02:45:03;;;;;;;10.43;9.40;;;25.50;61.70;;;;;;5049635;28;20448;-53
2021/06/19 02:47:30;;;;;;;10.13;9.23;;;25.50;61.90;;;;;;5049891;28;20438;-54
2021/06/19 02:49:58;;;;;;;12.67;11.10;;;25.50;62.00;;;;;;5031656;28;20528;-54
2021/06/19 02:52:24;;;;;;;11.63;10.47;;;25.50;62.10;;;;;;5050089;28;20433;-54
2021/06/19 02:54:51;;;;;;;10.57;9.57;;;25.50;62.30;;;;;;5049987;28;20441;-54
2021/06/19 02:57:17;;;;;;;12.57;9.30;;;25.50;62.40;;;;;;5053025;28;20430;-54
2021/06/19 02:59:44;;;;;;;10.43;9.53;;;25.50;62.40;;;;;;5053685;28;20993;-54
2021/06/19 03:02:11;;;;;;;10.97;9.97;;;25.40;62.50;;;;;;5035704;28;20552;-54
2021/06/19 03:04:37;;;;;;;10.60;9.70;;;25.10;62.30;;;;;;5053610;28;20423;-54
2021/06/19 03:07:05;;;;;;;10.40;9.30;;;25.30;62.60;;;;;;5053673;28;20915;-54
2021/06/19 03:09:32;;;;;;;10.93;9.80;;;25.40;62.90;;;;;;5052167;28;20477;-54
2021/06/19 03:11:59;;;;;;;12.47;9.67;;;25.20;62.70;;;;;;5052335;28;20445;-54
2021/06/19 03:14:25;;;;;;;11.57;10.47;;;25.20;62.90;;;;;;5052019;28;20500;-54
2021/06/19 03:16:52;;;;;;;11.70;10.60;;;25.40;63.10;;;;;;5052288;28;20481;-54
2021/06/19 03:19:18;;;;;;;12.43;10.97;;;25.40;63.20;;;;;;5052050;28;20530;-54
2021/06/19 03:21:45;;;;;;;11.97;10.87;;;25.50;63.40;;;;;;5052215;28;20431;-54
2021/06/19 03:24:13;;;;;;;11.00;10.00;;;25.00;63.10;;;;;;5052197;28;20529;-53
2021/06/19 03:26:40;;;;;;;13.03;9.97;;;25.40;63.50;;;;;;5051786;28;20422;-54
2021/06/19 03:29:07;;;;;;;11.07;9.93;;;25.40;64.30;;;;;;5051522;28;20454;-54
2021/06/19 03:31:35;;;;;;;11.00;9.97;;;25.20;63.40;;;;;;5051690;28;20470;-54
2021/06/19 03:34:02;;;;;;;10.73;9.83;;;25.20;63.50;;;;;;5051801;28;20489;-54
2021/06/19 03:36:29;;;;;;;11.27;10.17;;;25.40;63.60;;;;;;5051926;28;20447;-54
2021/06/19 03:38:56;;;;;;;11.27;10.17;;;25.40;63.60;;;;;;5051567;28;20516;-54
2021/06/19 03:41:24;;;;;;;13.07;11.20;;;25.60;63.80;;;;;;5051898;28;20437;-54
2021/06/19 03:43:50;;;;;;;12.40;11.20;;;25.30;63.60;;;;;;5051855;28;20772;-54
2021/06/19 03:46:17;;;;;;;11.83;10.57;;;25.40;63.80;;;;;;5051666;28;20934;-54
2021/06/19 03:48:44;;;;;;;12.70;10.70;;;25.40;63.90;;;;;;5051459;28;20456;-54
2021/06/19 03:51:10;;;;;;;11.30;10.10;;;25.40;63.90;;;;;;5051555;28;20438;-54
2021/06/19 03:53:37;;;;;;;12.90;10.10;;;25.50;63.90;;;;;;5051459;28;20485;-54
2021/06/19 03:56:04;;;;;;;10.50;9.50;;;25.60;64.00;;;;;;5051724;28;20689;-54
2021/06/19 03:58:32;;;;;;;17.77;10.43;;;25.60;64.70;;;;;;5050904;28;20494;-53
2021/06/19 04:00:59;;;;;;;10.47;9.47;;;25.70;63.90;;;;;;5051649;28;20432;-54
2021/06/19 04:03:25;;;;;;;12.23;11.03;;;25.60;63.70;;;;;;5051716;28;20487;-54
2021/06/19 04:05:52;;;;;;;12.80;10.57;;;25.80;63.60;;;;;;5051364;28;20484;-54
2021/06/19 04:08:19;;;;;;;10.80;9.70;;;25.80;63.40;;;;;;5048712;28;48379;-54
2021/06/19 04:10:45;;;;;;;10.40;9.50;;;25.90;63.20;;;;;;5052417;28;20434;-54
2021/06/19 04:13:12;;;;;;;11.93;10.73;;;26.10;62.90;;;;;;5052249;28;20493;-54
2021/06/19 04:15:40;;;;;;;10.37;9.47;;;26.30;62.80;;;;;;5052398;28;21010;-54
2021/06/19 04:18:07;;;;;;;11.30;10.27;;;26.20;62.30;;;;;;5052103;28;20455;-54
2021/06/19 04:20:33;;;;;;;10.10;9.30;;;26.50;62.20;;;;;;5052361;28;20449;-54
2021/06/19 04:23:00;;;;;;;11.47;10.47;;;26.40;61.70;;;;;;5052159;28;20521;-54
2021/06/19 04:25:26;;;;;;;11.07;9.97;;;26.80;61.60;;;;;;5034113;28;20447;-55
2021/06/19 04:27:56;;;;;;;11.07;10.07;;;26.90;61.30;;;;;;5051994;28;20949;-55
2021/06/19 04:30:24;;;;;;;12.27;10.97;;;27.00;60.90;;;;;;5051813;28;20439;-55
2021/06/19 04:32:53;;;;;;;12.07;10.97;;;26.90;60.30;;;;;;5051956;28;20431;-54
2021/06/19 04:35:20;;;;;;;11.70;10.60;;;27.20;60.10;;;;;;5033765;28;20461;-55
2021/06/19 04:37:47;;;;;;;11.03;10.03;;;27.30;59.90;;;;;;5051939;28;20933;-54
2021/06/19 04:40:19;;;;;;;10.50;9.50;;;27.40;59.80;;;;;;5051565;28;20438;-54
2021/06/19 04:42:55;;;;;;;13.87;10.37;;;27.70;59.80;;;;;;5051785;28;20430;-54
2021/06/19 04:45:22;;;;;;;11.93;10.93;;;27.60;59.50;;;;;;5051903;28;20462;-55
2021/06/19 04:47:48;;;;;;;10.43;9.50;;;27.70;59.30;;;;;;5051614;28;20427;-54
2021/06/19 04:50:16;;;;;;;12.03;10.83;;;27.80;59.10;;;;;;5051384;28;20920;-54
2021/06/19 04:52:45;;;;;;;11.23;10.43;;;27.80;58.90;;;;;;5051442;28;20440;-54
2021/06/19 04:55:14;;;;;;;11.90;10.90;;;27.70;58.70;;;;;;5051951;28;20502;-55
2021/06/19 04:57:41;;;;;;;12.97;11.57;;;28.00;58.70;;;;;;5051522;28;20446;-55
2021/06/19 05:00:10;;;;;;;11.80;10.80;;;28.00;58.60;;;;;;5051242;28;20477;-55
2021/06/19 05:02:37;;;;;;;12.40;11.30;;;28.10;58.50;;;;;;5033783;28;20605;-55
2021/06/19 05:05:05;;;;;;;10.97;10.10;;;28.10;58.50;;;;;;5051421;28;20430;-55
2021/06/19 05:07:34;;;;;;;12.03;11.03;;;28.10;58.50;;;;;;5051428;28;20561;-54
2021/06/19 05:10:02;;;;;;;11.43;10.57;;;27.80;58.30;;;;;;5050554;28;20473;-55
2021/06/19 05:12:29;;;;;;;11.47;10.47;;;28.00;58.30;;;;;;5051367;28;20552;-55
2021/06/19 05:14:56;;;;;;;10.97;9.97;;;28.20;58.40;;;;;;5051112;28;20481;-55
2021/06/19 05:17:22;;;;;;;12.00;10.90;;;28.30;58.30;;;;;;5051070;28;20433;-55
2021/06/19 05:19:49;;;;;;;11.63;10.53;;;28.40;58.20;;;;;;5050580;28;20465;-55
2021/06/19 05:22:16;;;;;;;11.63;10.63;;;28.40;58.10;;;;;;5051096;28;20465;-54
2021/06/19 05:24:43;;;;;;;11.10;10.20;;;28.50;58.00;;;;;;5051236;28;20492;-54
2021/06/19 05:27:10;;;;;;;12.83;11.63;;;28.60;58.00;;;;;;5050772;28;20504;-55
2021/06/19 05:29:37;;;;;;;11.90;10.73;;;28.60;57.90;;;;;;5050652;28;20458;-54
2021/06/19 05:32:04;;;;;;;13.57;11.30;;;28.60;57.80;;;;;;5050834;28;20956;-55
2021/06/19 05:34:31;;;;;;;13.23;11.43;;;28.60;57.80;;;;;;5051324;28;20536;-55
2021/06/19 05:36:58;;;;;;;12.13;11.10;;;28.60;57.80;;;;;;5051206;28;20813;-55
2021/06/19 05:39:24;;;;;;;12.73;11.50;;;28.70;57.80;;;;;;5051421;28;20510;-55
2021/06/19 05:41:52;;;;;;;11.97;11.00;;;28.80;57.70;;;;;;5051438;28;20434;-55
2021/06/19 05:44:19;;;;;;;11.90;10.70;;;28.90;57.60;;;;;;5051255;28;20632;-55
2021/06/19 05:46:45;;;;;;;12.17;11.07;;;29.00;57.50;;;;;;5051095;28;20430;-55
2021/06/19 05:49:12;;;;;;;12.80;11.70;;;29.10;57.40;;;;;;5050561;28;20473;-55
2021/06/19 05:51:39;;;;;;;16.33;11.57;;;29.20;57.30;;;;;;5050604;28;20448;-55
2021/06/19 05:54:06;;;;;;;11.97;10.93;;;29.20;57.20;;;;;;5050314;28;20560;-56
2021/06/19 05:56:33;;;;;;;11.20;10.20;;;29.30;57.10;;;;;;5050263;28;20430;-55
2021/06/19 05:59:01;;;;;;;11.57;10.53;;;29.30;57.00;;;;;;5049914;28;20450;-56
2021/06/19 06:01:30;;;;;;;11.50;10.50;;;29.40;56.90;;;;;;5050372;28;20429;-56
2021/06/19 06:03:56;;;;;;;12.20;11.00;;;29.30;56.80;;;;;;5050358;28;20927;-55
2021/06/19 06:06:23;;;;;;;11.80;10.80;;;29.60;56.90;;;;;;5050337;28;20441;-56
2021/06/19 06:08:50;;;;;;;13.03;11.83;;;29.40;56.60;;;;;;5080015;22;20484;-53
2021/06/19 06:11:17;;;;;;;11.77;10.63;;;29.70;56.60;;;;;;5071360;28;20443;-53
2021/06/19 06:13:43;;;;;;;11.00;10.10;;;29.60;56.50;;;;;;5071127;28;20483;-53
2021/06/19 06:16:11;;;;;;;12.63;10.40;;;29.70;56.40;;;;;;5069758;28;20449;-54
2021/06/19 06:18:39;;;;;;;11.47;10.57;;;29.60;56.30;;;;;;5070776;28;20468;-53
2021/06/19 06:21:07;;;;;;;11.10;9.67;;;29.80;56.40;;;;;;5071455;28;20532;-53
2021/06/19 06:23:34;;;;;;;11.40;10.50;;;30.30;56.60;;;;;;5071274;28;20938;-53
2021/06/19 06:26:01;;;;;;;11.47;10.47;;;29.90;56.30;;;;;;5071009;28;20441;-53
2021/06/19 06:28:28;;;;;;;11.97;10.97;;;29.90;56.10;;;;;;5070993;28;20881;-53
2021/06/19 06:30:55;;;;;;;10.40;9.60;;;30.00;56.10;;;;;;5053871;28;20909;-54
2021/06/19 06:33:26;;;;;;;11.80;10.90;;;30.00;56.00;;;;;;5074905;28;20425;-55
2021/06/19 06:35:53;;;;;;;12.20;10.90;;;30.00;55.90;;;;;;5074885;28;20811;-55
2021/06/19 06:38:20;;;;;;;10.57;9.33;;;30.00;55.80;;;;;;5074365;28;20433;-55
2021/06/19 06:40:46;;;;;;;10.63;9.30;;;30.00;55.70;;;;;;5074807;28;20930;-55
2021/06/19 06:43:13;;;;;;;11.47;10.47;;;30.20;55.70;;;;;;5074373;28;20500;-55
2021/06/19 06:45:40;;;;;;;11.40;10.30;;;30.30;55.60;;;;;;5074536;28;20520;-55
2021/06/19 06:48:07;;;;;;;13.20;11.40;;;30.30;55.60;;;;;;5074373;28;20438;-55
2021/06/19 06:50:35;;;;;;;16.40;10.80;;;30.40;55.50;;;;;;5075063;28;20429;-55
2021/06/19 06:53:02;;;;;;;10.73;9.83;;;30.40;54.80;;;;;;5074391;28;20496;-55
2021/06/19 06:55:29;;;;;;;9.83;9.13;;;30.40;55.30;;;;;;5074415;28;20501;-55
2021/06/19 06:57:55;;;;;;;10.97;9.80;;;30.20;55.20;;;;;;5074514;28;20436;-55
2021/06/19 07:00:22;;;;;;;10.97;9.60;;;30.40;55.30;;;;;;5074080;28;20454;-55
2021/06/19 07:02:49;;;;;;;11.93;9.83;;;30.30;55.30;;;;;;5056498;28;20449;-55
2021/06/19 07:05:16;;;;;;;11.90;10.70;;;30.40;55.50;;;;;;5074425;28;20426;-55
2021/06/19 07:07:44;;;;;;;12.37;11.27;;;30.30;55.40;;;;;;5074351;28;20494;-55
2021/06/19 07:10:13;;;;;;;12.97;11.67;;;30.30;55.40;;;;;;5073549;28;20471;-54
2021/06/19 07:12:42;;;;;;;11.20;10.10;;;30.40;55.50;;;;;;5074092;28;20433;-55
2021/06/19 07:15:10;;;;;;;10.47;9.40;;;30.40;55.50;;;;;;5073827;28;20843;-55
2021/06/19 07:17:36;;;;;;;10.50;9.40;;;30.40;55.30;;;;;;5074634;28;20770;-55
2021/06/19 07:20:05;;;;;;;16.00;10.30;;;30.40;55.00;;;;;;5055544;28;20470;-55
2021/06/19 07:22:31;;;;;;;11.13;10.10;;;30.40;55.00;;;;;;5074084;28;20430;-55
2021/06/19 07:24:59;;;;;;;11.03;10.13;;;30.40;55.00;;;;;;5074115;28;20799;-55
2021/06/19 07:27:26;;;;;;;10.90;10.10;;;30.40;55.00;;;;;;5073727;28;20444;-55
2021/06/19 07:29:52;;;;;;;11.90;9.30;;;30.40;55.10;;;;;;5073020;28;20457;-54
2021/06/19 07:32:19;;;;;;;13.13;10.10;;;30.40;55.30;;;;;;5073741;28;20816;-54
2021/06/19 07:34:46;;;;;;;12.57;10.20;;;30.40;55.20;;;;;;5055672;28;20473;-55
2021/06/19 07:37:12;;;;;;;10.30;9.40;;;30.40;55.10;;;;;;5073183;28;20434;-55
2021/06/19 07:39:39;;;;;;;10.43;9.47;;;30.50;54.80;;;;;;5072970;28;20963;-55
2021/06/19 07:42:07;;;;;;;10.77;9.60;;;30.00;54.50;;;;;;5054780;28;20437;-55
2021/06/19 07:44:34;;;;;;;11.03;9.83;;;30.60;54.90;;;;;;5072799;28;20437;-55
2021/06/19 07:47:02;;;;;;;10.67;9.57;;;30.50;54.90;;;;;;5073811;28;20441;-55
2021/06/19 07:49:29;;;;;;;10.57;9.50;;;30.70;55.00;;;;;;5072637;28;20989;-55
2021/06/19 07:51:57;;;;;;;9.20;8.50;;;30.60;54.90;;;;;;5072838;28;20432;-55
2021/06/19 07:54:24;;;;;;;11.97;9.03;;;30.50;54.70;;;;;;5073090;28;20838;-55
2021/06/19 07:56:50;;;;;;;10.03;9.10;;;30.80;54.70;;;;;;5073123;28;20430;-55
2021/06/19 07:59:18;;;;;;;9.50;8.70;;;30.80;54.60;;;;;;5054837;28;20458;-55
2021/06/19 08:01:45;;;;;;;10.43;9.23;;;30.30;54.20;;;;;;5073194;28;20533;-54
2021/06/19 08:04:11;;;;;;;8.90;8.20;;;30.60;54.40;;;;;;5073048;28;20434;-55
2021/06/19 08:06:38;;;;;;;11.57;10.47;;;30.70;54.40;;;;;;5072823;28;20808;-55
2021/06/19 08:09:05;;;;;;;10.20;9.20;;;30.90;54.50;;;;;;5072320;28;20826;-55
2021/06/19 08:11:32;;;;;;;11.33;10.20;;;30.90;54.50;;;;;;5072719;28;20438;-54
2021/06/19 08:13:59;;;;;;;13.40;9.27;;;30.90;54.50;;;;;;5072865;28;20772;-55
2021/06/19 08:16:27;;;;;;;9.67;8.87;;;31.00;54.40;;;;;;5072710;28;20432;-55
2021/06/19 08:18:54;;;;;;;11.20;9.27;;;31.00;54.40;;;;;;5072288;28;20567;-55
2021/06/19 08:21:21;;;;;;;10.60;9.60;;;31.00;54.50;;;;;;5072533;28;20918;-55
2021/06/19 08:23:47;;;;;;;11.90;9.23;;;31.00;54.50;;;;;;5054484;28;20452;-55
2021/06/19 08:26:14;;;;;;;11.00;9.53;;;30.90;54.80;;;;;;5072575;28;20892;-55
2021/06/19 08:28:41;;;;;;;11.63;9.47;;;31.10;54.20;;;;;;5072426;28;20997;-55
2021/06/19 08:31:07;;;;;;;10.23;9.23;;;31.10;54.20;;;;;;5072143;28;20438;-55
2021/06/19 08:33:35;;;;;;;11.57;9.00;;;30.80;53.80;;;;;;5053953;28;20446;-54
2021/06/19 08:36:02;;;;;;;8.97;8.17;;;31.20;54.00;;;;;;5072199;28;20560;-54
2021/06/19 08:38:28;;;;;;;9.30;8.50;;;31.20;53.70;;;;;;5071799;28;20445;-54
2021/06/19 08:40:55;;;;;;;10.27;9.30;;;31.20;53.60;;;;;;5072333;28;20930;-54
2021/06/19 08:43:22;;;;;;;9.03;8.17;;;31.20;53.20;;;;;;5072219;28;20432;-54
2021/06/19 08:45:52;;;;;;;10.40;9.40;;;31.30;53.30;;;;;;5072189;28;20849;-54
2021/06/19 08:48:20;;;;;;;9.63;8.67;;;31.30;53.10;;;;;;5071306;28;20537;-54
2021/06/19 08:50:49;;;;;;;8.63;7.83;;;31.20;52.80;;;;;;5071489;28;20520;-54
2021/06/19 08:53:19;;;;;;;9.30;7.70;;;31.30;52.60;;;;;;5071773;28;20425;-54
2021/06/19 08:55:47;;;;;;;10.17;7.63;;;31.30;52.30;;;;;;5071376;28;20513;-53
2021/06/19 08:58:13;;;;;;;9.27;8.37;;;31.30;52.60;;;;;;5071370;28;20434;-54
2021/06/19 09:00:40;;;;;;;8.20;7.57;;;31.10;52.40;;;;;;5071900;28;20437;-54
2021/06/19 09:03:19;;;;;;;8.73;8.00;;;31.40;52.10;;;;;;5053486;28;20992;-54
2021/06/19 09:05:48;;;;;;;9.50;8.60;;;31.40;52.90;;;;;;5071882;28;20923;-54
2021/06/19 09:08:15;;;;;;;9.07;8.17;;;31.30;52.70;;;;;;5071410;28;20444;-54
2021/06/19 09:10:42;;;;;;;9.77;8.67;;;31.30;52.70;;;;;;5071677;28;20796;-55
2021/06/19 09:13:10;;;;;;;12.33;8.20;;;31.50;52.60;;;;;;5071661;28;20425;-55
2021/06/19 09:15:44;;;;;;;8.07;7.50;;;31.40;52.00;;;;;;5071579;28;20477;-55
2021/06/19 09:18:17;;;;;;;9.77;8.23;;;31.50;52.60;;;;;;5071109;28;20438;-55
2021/06/19 09:20:50;;;;;;;9.23;8.30;;;31.70;52.00;;;;;;5053632;28;20565;-54
2021/06/19 09:23:19;;;;;;;8.70;7.97;;;31.50;51.30;;;;;;5071496;28;20532;-55
2021/06/19 09:25:45;;;;;;;9.73;9.03;;;31.70;51.20;;;;;;5071250;28;20521;-55
2021/06/19 09:28:12;;;;;;;9.83;8.50;;;31.80;51.20;;;;;;5071143;28;20434;-55
2021/06/19 09:30:40;;;;;;;10.40;9.53;;;31.90;50.90;;;;;;5071939;28;20434;-54
2021/06/19 09:33:10;;;;;;;10.80;7.50;;;31.90;50.80;;;;;;5071360;28;20430;-54
2021/06/19 09:35:38;;;;;;;8.90;8.00;;;32.00;50.70;;;;;;5070916;28;20885;-55
2021/06/19 09:38:08;;;;;;;8.50;7.70;;;32.00;50.30;;;;;;5070385;28;20430;-54
2021/06/19 09:40:38;;;;;;;9.77;8.83;;;32.10;50.00;;;;;;5052973;28;20445;-54
2021/06/19 09:43:13;;;;;;;7.87;7.17;;;32.10;49.60;;;;;;5070971;28;20461;-55
2021/06/19 09:45:42;;;;;;;11.20;7.93;;;31.90;47.90;;;;;;5071334;28;20873;-55
2021/06/19 09:48:24;;;;;;;7.73;6.87;;;32.20;47.50;;;;;;5070723;28;20479;-55
2021/06/19 09:51:18;;;;;;;7.63;6.63;;;32.30;46.20;;;;;;5071150;28;20922;-55
2021/06/19 09:53:49;;;;;;;6.87;6.27;;;32.40;46.40;;;;;;5070961;28;20980;-54
2021/06/19 09:56:17;;;;;;;7.13;6.63;;;32.40;46.60;;;;;;5070877;28;20481;-55
2021/06/19 09:58:45;;;;;;;8.50;7.70;;;32.40;46.50;;;;;;5070539;28;20489;-55
2021/06/19 10:01:18;;;;;;;9.07;7.20;;;32.30;46.00;;;;;;5052488;28;20476;-55
2021/06/19 10:03:56;;;;;;;8.93;7.53;;;32.30;45.70;;;;;;5070899;28;20960;-54
2021/06/19 10:06:24;;;;;;;7.30;6.70;;;32.60;45.40;;;;;;5069915;28;20426;-54
2021/06/19 10:08:53;;;;;;;8.20;7.40;;;32.70;45.30;;;;;;5069928;28;21021;-54
2021/06/19 10:11:23;;;;;;;7.90;7.20;;;32.50;44.80;;;;;;5052782;28;20453;-54
2021/06/19 10:13:50;;;;;;;7.33;6.43;;;33.20;45.00;;;;;;5071227;28;20440;-54
2021/06/19 10:16:17;;;;;;;6.50;5.80;;;32.90;43.90;;;;;;5070945;28;21032;-54
2021/06/19 10:18:45;;;;;;;6.87;6.37;;;32.90;43.30;;;;;;5070026;28;20453;-53
2021/06/19 10:21:15;;;;;;;7.70;6.70;;;32.90;43.10;;;;;;5070194;28;20425;-54
2021/06/19 10:23:43;;;;;;;7.00;6.47;;;33.00;43.00;;;;;;5070281;28;20537;-54
2021/06/19 10:26:11;;;;;;;9.60;6.70;;;33.10;42.50;;;;;;5070929;28;20440;-54
2021/06/19 10:28:44;;;;;;;8.40;6.40;;;33.10;42.60;;;;;;5070377;28;20836;-54
2021/06/19 10:31:11;;;;;;;6.70;6.20;;;33.20;42.30;;;;;;5070739;28;20456;-54
2021/06/19 10:33:38;;;;;;;7.70;6.83;;;33.30;42.10;;;;;;5070582;28;20507;-55
2021/06/19 10:36:07;;;;;;;7.10;6.53;;;33.30;41.90;;;;;;5070589;28;20496;-55
2021/06/19 10:38:47;;;;;;;7.40;6.23;;;33.40;41.90;;;;;;5070219;28;20461;-55
2021/06/19 10:41:15;;;;;;;11.80;7.80;;;33.40;41.80;;;;;;5070669;28;20774;-54
2021/06/19 10:43:43;;;;;;;6.50;5.90;;;33.10;42.00;;;;;;5070753;28;20429;-54
2021/06/19 10:46:32;;;;;;;5.87;5.30;;;33.40;42.30;;;;;;5070317;28;20849;-54
2021/06/19 10:49:00;;;;;;;6.87;6.13;;;33.30;42.20;;;;;;5070282;28;20957;-55
2021/06/19 10:51:29;;;;;;;8.20;6.50;;;33.40;42.20;;;;;;5070638;28;20433;-54
2021/06/19 10:54:13;;;;;;;7.73;6.93;;;33.50;42.20;;;;;;5051925;28;20446;-55
2021/06/19 10:56:51;;;;;;;7.10;6.50;;;33.50;42.60;;;;;;5070324;28;20570;-56
2021/06/19 10:59:20;;;;;;;6.40;5.80;;;33.40;42.30;;;;;;5069680;28;20450;-55
2021/06/19 11:01:48;;;;;;;11.30;6.63;;;33.40;42.20;;;;;;5070152;28;20496;-54
2021/06/19 11:04:42;;;;;;;7.83;6.87;;;33.50;42.10;;;;;;5070204;28;20456;-55
2021/06/19 11:07:10;;;;;;;6.50;5.90;;;33.60;42.10;;;;;;5023291;28;20536;-55
2021/06/19 11:09:38;;;;;;;7.13;6.00;;;33.60;42.50;;;;;;5070268;28;20469;-55
2021/06/19 11:12:09;;;;;;;7.00;6.30;;;33.60;42.90;;;;;;5070451;28;20425;-55
2021/06/19 11:14:53;;;;;;;6.93;6.30;;;33.60;42.20;;;;;;5070452;28;20838;-55
2021/06/19 11:17:39;;;;;;;7.03;6.40;;;33.60;41.80;;;;;;5053343;28;20472;-55
2021/06/19 11:20:23;;;;;;;7.90;7.20;;;33.70;41.90;;;;;;5073907;28;20482;-55
2021/06/19 11:22:57;;;;;;;6.63;6.00;;;33.70;42.10;;;;;;5073885;28;20433;-56
2021/06/19 11:25:36;;;;;;;7.20;6.47;;;33.60;42.20;;;;;;5073774;28;20521;-55
2021/06/19 11:28:06;;;;;;;7.20;6.50;;;33.50;42.00;;;;;;5073758;28;20669;-55
2021/06/19 11:30:54;;;;;;;8.13;7.23;;;33.80;42.30;;;;;;5073647;28;20437;-56
2021/06/19 11:33:42;;;;;;;7.83;6.83;;;33.90;42.40;;;;;;5073437;28;20460;-55
2021/06/19 11:36:32;;;;;;;7.80;7.10;;;33.90;42.30;;;;;;5073579;28;20534;-55
2021/06/19 11:39:08;;;;;;;9.00;6.50;;;34.00;42.10;;;;;;5072505;28;20953;-55
2021/06/19 11:41:40;;;;;;;8.27;7.47;;;34.00;42.30;;;;;;5073310;28;20490;-55
2021/06/19 11:44:14;;;;;;;9.70;8.90;;;34.10;42.70;;;;;;5073682;28;20441;-55
2021/06/19 11:46:48;;;;;;;7.50;6.90;;;34.20;42.50;;;;;;5073428;28;20437;-54
2021/06/19 11:49:15;;;;;;;10.10;6.90;;;34.20;42.60;;;;;;5073196;28;20544;-54
2021/06/19 11:51:42;;;;;;;7.60;7.00;;;34.10;42.40;;;;;;5073340;28;20500;-54
2021/06/19 11:54:15;;;;;;;9.30;8.60;;;34.20;42.50;;;;;;5073232;28;20422;-55
2021/06/19 11:56:43;;;;;;;8.63;7.93;;;34.30;42.60;;;;;;5054875;28;20564;-55
2021/06/19 11:59:12;;;;;;;10.00;7.80;;;34.40;42.80;;;;;;5054628;28;20468;-55
2021/06/19 12:01:40;;;;;;;7.73;7.13;;;34.50;42.70;;;;;;5073194;28;20437;-55
2021/06/19 12:04:10;;;;;;;7.40;6.60;;;34.50;42.70;;;;;;5055080;28;20489;-54
2021/06/19 12:06:39;;;;;;;8.63;7.83;;;34.60;42.50;;;;;;5054976;28;20460;-55
2021/06/19 12:09:07;;;;;;;8.10;7.50;;;34.70;42.20;;;;;;5091446;22;20516;-49
2021/06/19 12:11:35;;;;;;;7.97;7.37;;;34.80;41.90;;;;;;5053075;28;20515;-49
2021/06/19 12:14:15;;;;;;;8.97;8.13;;;34.90;41.80;;;;;;5053117;28;20890;-47
2021/06/19 12:16:43;;;;;;;10.60;7.33;;;35.00;41.60;;;;;;5052719;28;20470;-48
2021/06/19 12:19:09;;;;;;;8.30;7.60;;;35.00;41.30;;;;;;5052444;28;20490;-47
2021/06/19 12:21:37;;;;;;;7.90;7.07;;;35.10;41.10;;;;;;5052277;28;20537;-48
2021/06/19 12:24:20;;;;;;;9.17;7.50;;;35.00;41.10;;;;;;5052270;28;20439;-50
2021/06/19 12:26:58;;;;;;;8.00;7.20;;;35.20;41.30;;;;;;5052374;28;20523;-49
2021/06/19 12:29:30;;;;;;;10.23;8.10;;;35.00;41.50;;;;;;5051083;28;20458;-48
2021/06/19 12:31:59;;;;;;;9.50;8.60;;;35.40;41.70;;;;;;5052103;28;20434;-49
2021/06/19 12:34:28;;;;;;;7.20;6.67;;;35.40;41.70;;;;;;5052242;28;20462;-49
2021/06/19 12:36:55;;;;;;;8.70;8.00;;;35.30;41.40;;;;;;5052283;28;20998;-47
2021/06/19 12:39:22;;;;;;;9.83;7.60;;;35.60;41.40;;;;;;5051677;28;20799;-48
2021/06/19 12:41:48;;;;;;;7.20;6.50;;;35.60;41.30;;;;;;5051912;28;20430;-47
2021/06/19 12:44:15;;;;;;;8.53;7.03;;;35.60;41.00;;;;;;5052174;28;20437;-49